sensor_id;sensor_type;location;lat;lon;timestamp;temperature;humidity
8338;DHT22;4206;48.634;9.516;2023-02-01T00:01:12;3.90;99.90
8338;DHT22;4206;48.634;9.516;2023-02-01T00:03:38;3.90;99.90
8338;DHT22;4206;48.634;9.516;2023-02-01T00:06:04;3.90;99.90
8338;DHT22;4206;48.634;9.516;2023-02-01T00:08:30;4.00;99.90
8338;DHT22;4206;48.634;9.516;2023-02-01T00:11:05;3.90;99.90
8338;DHT22;4206;48.634;9.516;2023-02-01T00:13:32;3.90;99.90
8338;DHT22;4206;48.634;9.516;2023-02-01T00:16:10;3.80;99.90
8338;DHT22;4206;48.634;9.516;2023-02-01T00:18:37;3.80;99.90
8338;DHT22;4206;48.634;9.516;2023-02-01T00:21:03;3.80;99.90
8338;DHT22;4206;48.634;9.516;2023-02-01T00:23:32;3.80;99.90
8338;DHT22;4206;48.634;9.516;2023-02-01T00:26:02;3.70;99.90
8338;DHT22;4206;48.634;9.516;2023-02-01T00:28:28;3.70;99.90
8338;DHT22;4206;48.634;9.516;2023-02-01T00:30:57;3.80;99.90
8338;DHT22;4206;48.634;9.516;2023-02-01T00:33:23;3.70;99.90
8338;DHT22;4206;48.634;9.516;2023-02-01T00:35:48;3.70;99.90
8338;DHT22;4206;48.634;9.516;2023-02-01T00:38:14;3.70;99.90
8338;DHT22;4206;48.634;9.516;2023-02-01T00:40:40;3.70;99.90
8338;DHT22;4206;48.634;9.516;2023-02-01T00:43:05;3.70;99.90
8338;DHT22;4206;48.634;9.516;2023-02-01T00:45:31;3.70;99.90
8338;DHT22;4206;48.634;9.516;2023-02-01T00:47:58;3.70;99.90
8338;DHT22;4206;48.634;9.516;2023-02-01T00:50:23;3.70;99.90
8338;DHT22;4206;48.634;9.516;2023-02-01T00:52:49;3.80;99.90
8338;DHT22;4206;48.634;9.516;2023-02-01T00:55:15;3.70;99.90
8338;DHT22;4206;48.634;9.516;2023-02-01T00:57:40;3.80;99.90
8338;DHT22;4206;48.634;9.516;2023-02-01T01:00:06;3.80;99.90
8338;DHT22;4206;48.634;9.516;2023-02-01T01:02:32;3.80;99.90
8338;DHT22;4206;48.634;9.516;2023-02-01T01:04:58;3.80;99.90
8338;DHT22;4206;48.634;9.516;2023-02-01T01:07:23;3.90;99.90
8338;DHT22;4206;48.634;9.516;2023-02-01T01:09:49;3.90;99.90
8338;DHT22;4206;48.634;9.516;2023-02-01T01:12:15;3.90;99.90
8338;DHT22;4206;48.634;9.516;2023-02-01T01:14:40;3.90;99.90
8338;DHT22;4206;48.634;9.516;2023-02-01T01:17:06;3.90;99.90
8338;DHT22;4206;48.634;9.516;2023-02-01T01:19:32;4.00;99.90
8338;DHT22;4206;48.634;9.516;2023-02-01T01:21:57;4.00;99.90
8338;DHT22;4206;48.634;9.516;2023-02-01T01:24:23;3.90;99.90
8338;DHT22;4206;48.634;9.516;2023-02-01T01:26:49;3.90;99.90
8338;DHT22;4206;48.634;9.516;2023-02-01T01:29:14;4.10;99.90
8338;DHT22;4206;48.634;9.516;2023-02-01T01:31:40;4.00;99.90
8338;DHT22;4206;48.634;9.516;2023-02-01T01:34:05;4.00;99.90
8338;DHT22;4206;48.634;9.516;2023-02-01T01:36:31;4.00;99.90
8338;DHT22;4206;48.634;9.516;2023-02-01T01:38:57;4.00;99.90
8338;DHT22;4206;48.634;9.516;2023-02-01T01:41:25;4.00;99.90
8338;DHT22;4206;48.634;9.516;2023-02-01T01:46:23;4.00;99.90
8338;DHT22;4206;48.634;9.516;2023-02-01T01:48:53;4.00;99.90
8338;DHT22;4206;48.634;9.516;2023-02-01T01:51:21;4.00;99.90
8338;DHT22;4206;48.634;9.516;2023-02-01T01:53:54;4.00;99.90
8338;DHT22;4206;48.634;9.516;2023-02-01T01:56:22;4.00;99.90
8338;DHT22;4206;48.634;9.516;2023-02-01T01:58:48;4.10;99.90
8338;DHT22;4206;48.634;9.516;2023-02-01T02:01:13;4.00;99.90
8338;DHT22;4206;48.634;9.516;2023-02-01T02:03:42;4.10;99.90
8338;DHT22;4206;48.634;9.516;2023-02-01T02:06:17;4.00;99.90
8338;DHT22;4206;48.634;9.516;2023-02-01T02:08:46;4.00;99.90
8338;DHT22;4206;48.634;9.516;2023-02-01T02:11:16;4.10;99.90
8338;DHT22;4206;48.634;9.516;2023-02-01T02:13:44;4.10;99.90
8338;DHT22;4206;48.634;9.516;2023-02-01T02:16:23;4.10;99.90
8338;DHT22;4206;48.634;9.516;2023-02-01T02:19:14;4.10;99.90
8338;DHT22;4206;48.634;9.516;2023-02-01T02:35:26;4.20;99.90
8338;DHT22;4206;48.634;9.516;2023-02-01T02:38:08;4.30;99.90
8338;DHT22;4206;48.634;9.516;2023-02-01T02:40:48;4.20;99.90
8338;DHT22;4206;48.634;9.516;2023-02-01T02:43:22;4.20;99.90
8338;DHT22;4206;48.634;9.516;2023-02-01T02:46:11;4.30;99.90
8338;DHT22;4206;48.634;9.516;2023-02-01T02:51:46;4.30;99.90
8338;DHT22;4206;48.634;9.516;2023-02-01T02:54:32;4.30;99.90
8338;DHT22;4206;48.634;9.516;2023-02-01T02:57:28;4.30;99.90
8338;DHT22;4206;48.634;9.516;2023-02-01T03:00:14;4.20;99.90
8338;DHT22;4206;48.634;9.516;2023-02-01T03:02:55;4.30;99.90
8338;DHT22;4206;48.634;9.516;2023-02-01T03:05:41;4.30;99.90
8338;DHT22;4206;48.634;9.516;2023-02-01T03:18:20;4.30;99.90
8338;DHT22;4206;48.634;9.516;2023-02-01T03:20:49;4.20;99.90
8338;DHT22;4206;48.634;9.516;2023-02-01T03:23:18;4.20;99.90
8338;DHT22;4206;48.634;9.516;2023-02-01T03:25:48;4.20;99.90
8338;DHT22;4206;48.634;9.516;2023-02-01T03:28:15;4.10;99.90
8338;DHT22;4206;48.634;9.516;2023-02-01T03:30:45;4.10;99.90
8338;DHT22;4206;48.634;9.516;2023-02-01T03:33:16;4.10;99.90
8338;DHT22;4206;48.634;9.516;2023-02-01T03:38:50;4.10;99.90
8338;DHT22;4206;48.634;9.516;2023-02-01T03:41:27;4.10;99.90
8338;DHT22;4206;48.634;9.516;2023-02-01T03:44:17;4.10;99.90
8338;DHT22;4206;48.634;9.516;2023-02-01T03:49:30;4.00;99.90
8338;DHT22;4206;48.634;9.516;2023-02-01T03:51:58;4.10;99.90
8338;DHT22;4206;48.634;9.516;2023-02-01T03:54:26;4.10;99.90
8338;DHT22;4206;48.634;9.516;2023-02-01T03:56:54;4.10;99.90
8338;DHT22;4206;48.634;9.516;2023-02-01T03:59:20;4.20;99.90
8338;DHT22;4206;48.634;9.516;2023-02-01T04:01:46;4.30;99.90
8338;DHT22;4206;48.634;9.516;2023-02-01T04:04:11;4.20;99.90
8338;DHT22;4206;48.634;9.516;2023-02-01T04:06:46;4.20;99.90
8338;DHT22;4206;48.634;9.516;2023-02-01T04:09:11;4.20;99.90
8338;DHT22;4206;48.634;9.516;2023-02-01T04:11:37;4.20;99.90
8338;DHT22;4206;48.634;9.516;2023-02-01T04:14:02;4.10;99.90
8338;DHT22;4206;48.634;9.516;2023-02-01T04:16:30;4.10;99.90
8338;DHT22;4206;48.634;9.516;2023-02-01T04:18:56;4.20;99.90
8338;DHT22;4206;48.634;9.516;2023-02-01T04:21:22;4.20;99.90
8338;DHT22;4206;48.634;9.516;2023-02-01T04:23:48;4.20;99.90
8338;DHT22;4206;48.634;9.516;2023-02-01T04:26:14;4.20;99.90
8338;DHT22;4206;48.634;9.516;2023-02-01T04:28:41;4.40;99.90
8338;DHT22;4206;48.634;9.516;2023-02-01T04:31:07;4.30;99.90
8338;DHT22;4206;48.634;9.516;2023-02-01T04:33:33;4.30;99.90
8338;DHT22;4206;48.634;9.516;2023-02-01T04:35:58;4.30;99.90
8338;DHT22;4206;48.634;9.516;2023-02-01T04:38:24;4.40;99.90
8338;DHT22;4206;48.634;9.516;2023-02-01T04:40:50;4.30;99.90
8338;DHT22;4206;48.634;9.516;2023-02-01T04:43:16;4.40;99.90
8338;DHT22;4206;48.634;9.516;2023-02-01T04:45:47;4.40;99.90
8338;DHT22;4206;48.634;9.516;2023-02-01T04:48:12;4.40;99.90
8338;DHT22;4206;48.634;9.516;2023-02-01T04:50:38;4.40;99.90
8338;DHT22;4206;48.634;9.516;2023-02-01T04:53:04;4.40;99.90
8338;DHT22;4206;48.634;9.516;2023-02-01T04:55:29;4.40;99.90
8338;DHT22;4206;48.634;9.516;2023-02-01T04:57:56;4.40;99.90
8338;DHT22;4206;48.634;9.516;2023-02-01T05:00:22;4.40;99.90
8338;DHT22;4206;48.634;9.516;2023-02-01T05:02:47;4.40;99.90
8338;DHT22;4206;48.634;9.516;2023-02-01T05:05:13;4.50;99.90
8338;DHT22;4206;48.634;9.516;2023-02-01T05:07:39;4.50;99.90
8338;DHT22;4206;48.634;9.516;2023-02-01T05:10:05;4.40;99.90
8338;DHT22;4206;48.634;9.516;2023-02-01T05:12:31;4.40;99.90
8338;DHT22;4206;48.634;9.516;2023-02-01T05:15:13;4.50;99.90
8338;DHT22;4206;48.634;9.516;2023-02-01T05:17:39;4.50;99.90
8338;DHT22;4206;48.634;9.516;2023-02-01T05:20:07;4.50;99.90
8338;DHT22;4206;48.634;9.516;2023-02-01T05:22:33;4.50;99.90
8338;DHT22;4206;48.634;9.516;2023-02-01T05:24:58;4.50;99.90
8338;DHT22;4206;48.634;9.516;2023-02-01T05:27:24;4.40;99.90
8338;DHT22;4206;48.634;9.516;2023-02-01T05:29:50;4.40;99.90
8338;DHT22;4206;48.634;9.516;2023-02-01T05:32:15;4.40;99.90
8338;DHT22;4206;48.634;9.516;2023-02-01T05:34:41;4.40;99.90
8338;DHT22;4206;48.634;9.516;2023-02-01T05:37:07;4.40;99.90
8338;DHT22;4206;48.634;9.516;2023-02-01T05:39:33;4.40;99.90
8338;DHT22;4206;48.634;9.516;2023-02-01T05:41:58;4.40;99.90
8338;DHT22;4206;48.634;9.516;2023-02-01T05:44:24;4.30;99.90
8338;DHT22;4206;48.634;9.516;2023-02-01T05:46:50;4.40;99.90
8338;DHT22;4206;48.634;9.516;2023-02-01T05:49:17;4.40;99.90
8338;DHT22;4206;48.634;9.516;2023-02-01T05:51:43;4.40;99.90
8338;DHT22;4206;48.634;9.516;2023-02-01T05:54:09;4.40;99.90
8338;DHT22;4206;48.634;9.516;2023-02-01T05:56:35;4.40;99.90
8338;DHT22;4206;48.634;9.516;2023-02-01T05:59:01;4.50;99.90
8338;DHT22;4206;48.634;9.516;2023-02-01T06:01:26;4.50;99.90
8338;DHT22;4206;48.634;9.516;2023-02-01T06:03:52;4.50;99.90
8338;DHT22;4206;48.634;9.516;2023-02-01T06:06:18;4.50;99.90
8338;DHT22;4206;48.634;9.516;2023-02-01T06:08:45;4.60;99.90
8338;DHT22;4206;48.634;9.516;2023-02-01T06:11:11;4.50;99.90
8338;DHT22;4206;48.634;9.516;2023-02-01T06:13:36;4.50;99.90
8338;DHT22;4206;48.634;9.516;2023-02-01T06:16:04;4.50;99.90
8338;DHT22;4206;48.634;9.516;2023-02-01T06:18:32;4.50;99.90
8338;DHT22;4206;48.634;9.516;2023-02-01T06:20:59;4.50;99.90
8338;DHT22;4206;48.634;9.516;2023-02-01T06:23:26;4.50;99.90
8338;DHT22;4206;48.634;9.516;2023-02-01T06:25:52;4.40;99.90
8338;DHT22;4206;48.634;9.516;2023-02-01T06:28:19;4.30;99.90
8338;DHT22;4206;48.634;9.516;2023-02-01T06:30:45;4.20;99.90
8338;DHT22;4206;48.634;9.516;2023-02-01T06:33:13;4.20;99.90
8338;DHT22;4206;48.634;9.516;2023-02-01T06:35:41;4.10;99.90
8338;DHT22;4206;48.634;9.516;2023-02-01T06:38:07;4.10;99.90
8338;DHT22;4206;48.634;9.516;2023-02-01T06:40:33;4.10;99.90
8338;DHT22;4206;48.634;9.516;2023-02-01T06:42:59;4.00;99.90
8338;DHT22;4206;48.634;9.516;2023-02-01T06:45:24;4.00;99.90
8338;DHT22;4206;48.634;9.516;2023-02-01T06:47:50;4.00;99.90
8338;DHT22;4206;48.634;9.516;2023-02-01T06:50:16;4.00;99.90
8338;DHT22;4206;48.634;9.516;2023-02-01T06:52:41;4.00;99.90
8338;DHT22;4206;48.634;9.516;2023-02-01T06:55:07;4.00;99.90
8338;DHT22;4206;48.634;9.516;2023-02-01T06:57:33;4.10;99.90
8338;DHT22;4206;48.634;9.516;2023-02-01T07:00:01;4.20;99.90
8338;DHT22;4206;48.634;9.516;2023-02-01T07:02:28;4.20;99.90
8338;DHT22;4206;48.634;9.516;2023-02-01T07:04:53;4.30;99.90
8338;DHT22;4206;48.634;9.516;2023-02-01T07:07:19;4.20;99.90
8338;DHT22;4206;48.634;9.516;2023-02-01T07:09:46;4.30;99.90
8338;DHT22;4206;48.634;9.516;2023-02-01T07:12:11;4.30;99.90
8338;DHT22;4206;48.634;9.516;2023-02-01T07:14:37;4.30;99.90
8338;DHT22;4206;48.634;9.516;2023-02-01T07:17:02;4.30;99.90
8338;DHT22;4206;48.634;9.516;2023-02-01T07:19:28;4.30;99.90
8338;DHT22;4206;48.634;9.516;2023-02-01T07:21:54;4.30;99.90
8338;DHT22;4206;48.634;9.516;2023-02-01T07:24:20;4.30;99.90
8338;DHT22;4206;48.634;9.516;2023-02-01T07:26:45;4.30;99.90
8338;DHT22;4206;48.634;9.516;2023-02-01T07:29:13;4.30;99.90
8338;DHT22;4206;48.634;9.516;2023-02-01T07:31:38;4.30;99.90
8338;DHT22;4206;48.634;9.516;2023-02-01T07:34:04;4.40;99.90
8338;DHT22;4206;48.634;9.516;2023-02-01T07:36:30;4.30;99.90
8338;DHT22;4206;48.634;9.516;2023-02-01T07:38:56;4.40;99.90
8338;DHT22;4206;48.634;9.516;2023-02-01T07:41:22;4.40;99.90
8338;DHT22;4206;48.634;9.516;2023-02-01T07:43:48;4.40;99.90
8338;DHT22;4206;48.634;9.516;2023-02-01T07:46:15;4.40;99.90
8338;DHT22;4206;48.634;9.516;2023-02-01T07:48:41;4.40;99.90
8338;DHT22;4206;48.634;9.516;2023-02-01T07:51:10;4.40;99.90
8338;DHT22;4206;48.634;9.516;2023-02-01T07:53:37;4.50;99.90
8338;DHT22;4206;48.634;9.516;2023-02-01T07:56:03;4.50;99.90
8338;DHT22;4206;48.634;9.516;2023-02-01T07:58:29;4.50;99.90
8338;DHT22;4206;48.634;9.516;2023-02-01T08:00:55;4.50;99.90
8338;DHT22;4206;48.634;9.516;2023-02-01T08:03:36;4.60;99.90
8338;DHT22;4206;48.634;9.516;2023-02-01T08:06:02;4.60;99.90
8338;DHT22;4206;48.634;9.516;2023-02-01T08:08:28;4.70;99.90
8338;DHT22;4206;48.634;9.516;2023-02-01T08:10:58;4.80;99.90
8338;DHT22;4206;48.634;9.516;2023-02-01T08:13:24;4.80;99.90
8338;DHT22;4206;48.634;9.516;2023-02-01T08:15:49;4.80;99.90
8338;DHT22;4206;48.634;9.516;2023-02-01T08:18:15;4.80;99.90
8338;DHT22;4206;48.634;9.516;2023-02-01T08:20:43;4.80;99.90
8338;DHT22;4206;48.634;9.516;2023-02-01T08:23:11;4.90;99.90
8338;DHT22;4206;48.634;9.516;2023-02-01T08:25:36;4.90;99.90
8338;DHT22;4206;48.634;9.516;2023-02-01T08:28:03;4.90;99.90
8338;DHT22;4206;48.634;9.516;2023-02-01T08:30:29;4.90;99.90
8338;DHT22;4206;48.634;9.516;2023-02-01T08:32:55;4.90;99.90
8338;DHT22;4206;48.634;9.516;2023-02-01T08:35:20;4.80;99.90
8338;DHT22;4206;48.634;9.516;2023-02-01T08:37:46;4.90;99.90
8338;DHT22;4206;48.634;9.516;2023-02-01T08:40:12;4.90;99.90
8338;DHT22;4206;48.634;9.516;2023-02-01T08:42:39;4.90;99.90
8338;DHT22;4206;48.634;9.516;2023-02-01T08:45:25;5.00;99.90
8338;DHT22;4206;48.634;9.516;2023-02-01T08:47:52;5.00;99.90
8338;DHT22;4206;48.634;9.516;2023-02-01T08:50:18;5.10;99.90
8338;DHT22;4206;48.634;9.516;2023-02-01T08:52:45;5.00;99.90
8338;DHT22;4206;48.634;9.516;2023-02-01T08:55:11;4.90;99.90
8338;DHT22;4206;48.634;9.516;2023-02-01T08:57:37;4.90;99.90
8338;DHT22;4206;48.634;9.516;2023-02-01T09:00:08;4.90;99.90
8338;DHT22;4206;48.634;9.516;2023-02-01T09:02:35;4.90;99.90
8338;DHT22;4206;48.634;9.516;2023-02-01T09:05:01;4.90;99.90
8338;DHT22;4206;48.634;9.516;2023-02-01T09:07:26;5.00;99.90
8338;DHT22;4206;48.634;9.516;2023-02-01T09:09:52;5.00;99.90
8338;DHT22;4206;48.634;9.516;2023-02-01T09:12:20;5.10;99.90
8338;DHT22;4206;48.634;9.516;2023-02-01T09:14:46;5.20;99.90
8338;DHT22;4206;48.634;9.516;2023-02-01T09:17:11;5.30;99.90
8338;DHT22;4206;48.634;9.516;2023-02-01T09:19:39;5.30;99.90
8338;DHT22;4206;48.634;9.516;2023-02-01T09:22:04;5.30;99.90
8338;DHT22;4206;48.634;9.516;2023-02-01T09:24:30;5.20;99.90
8338;DHT22;4206;48.634;9.516;2023-02-01T09:26:56;5.20;99.90
8338;DHT22;4206;48.634;9.516;2023-02-01T09:29:21;5.10;99.90
8338;DHT22;4206;48.634;9.516;2023-02-01T09:31:47;5.10;99.90
8338;DHT22;4206;48.634;9.516;2023-02-01T09:34:12;5.10;99.90
8338;DHT22;4206;48.634;9.516;2023-02-01T09:36:38;5.20;99.90
8338;DHT22;4206;48.634;9.516;2023-02-01T09:39:04;5.20;99.90
8338;DHT22;4206;48.634;9.516;2023-02-01T09:41:42;5.10;99.90
8338;DHT22;4206;48.634;9.516;2023-02-01T09:46:45;5.10;99.90
8338;DHT22;4206;48.634;9.516;2023-02-01T09:49:16;5.10;99.90
8338;DHT22;4206;48.634;9.516;2023-02-01T09:51:46;5.10;99.90
8338;DHT22;4206;48.634;9.516;2023-02-01T09:54:17;5.10;99.90
8338;DHT22;4206;48.634;9.516;2023-02-01T09:56:51;5.10;99.90
8338;DHT22;4206;48.634;9.516;2023-02-01T10:01:50;5.00;99.90
8338;DHT22;4206;48.634;9.516;2023-02-01T10:04:17;5.00;99.90
8338;DHT22;4206;48.634;9.516;2023-02-01T10:09:38;5.00;99.90
8338;DHT22;4206;48.634;9.516;2023-02-01T10:15:02;5.00;99.90
8338;DHT22;4206;48.634;9.516;2023-02-01T10:22:42;5.10;99.90
8338;DHT22;4206;48.634;9.516;2023-02-01T10:27:36;5.20;99.90
8338;DHT22;4206;48.634;9.516;2023-02-01T10:30:19;5.20;99.90
8338;DHT22;4206;48.634;9.516;2023-02-01T10:32:45;5.20;99.90
8338;DHT22;4206;48.634;9.516;2023-02-01T10:35:21;5.20;99.90
8338;DHT22;4206;48.634;9.516;2023-02-01T10:37:48;5.20;99.90
8338;DHT22;4206;48.634;9.516;2023-02-01T10:40:21;5.20;99.90
8338;DHT22;4206;48.634;9.516;2023-02-01T10:42:50;5.20;99.90
8338;DHT22;4206;48.634;9.516;2023-02-01T10:45:19;5.20;99.90
8338;DHT22;4206;48.634;9.516;2023-02-01T10:47:47;5.20;99.90
8338;DHT22;4206;48.634;9.516;2023-02-01T10:50:24;5.30;99.90
8338;DHT22;4206;48.634;9.516;2023-02-01T10:52:58;5.30;99.90
8338;DHT22;4206;48.634;9.516;2023-02-01T10:57:58;5.40;99.90
8338;DHT22;4206;48.634;9.516;2023-02-01T11:00:24;5.30;99.90
8338;DHT22;4206;48.634;9.516;2023-02-01T11:02:50;5.30;99.90
8338;DHT22;4206;48.634;9.516;2023-02-01T11:05:16;5.40;99.90
8338;DHT22;4206;48.634;9.516;2023-02-01T11:07:50;5.40;99.90
8338;DHT22;4206;48.634;9.516;2023-02-01T11:10:37;5.50;99.90
8338;DHT22;4206;48.634;9.516;2023-02-01T11:13:04;5.50;99.90
8338;DHT22;4206;48.634;9.516;2023-02-01T11:15:30;5.50;99.90
8338;DHT22;4206;48.634;9.516;2023-02-01T11:17:56;5.40;99.90
8338;DHT22;4206;48.634;9.516;2023-02-01T11:20:35;5.50;99.90
8338;DHT22;4206;48.634;9.516;2023-02-01T11:23:03;5.40;99.90
8338;DHT22;4206;48.634;9.516;2023-02-01T11:25:30;5.40;99.90
8338;DHT22;4206;48.634;9.516;2023-02-01T11:27:57;5.40;99.90
8338;DHT22;4206;48.634;9.516;2023-02-01T11:30:32;5.40;99.90
8338;DHT22;4206;48.634;9.516;2023-02-01T11:32:59;5.50;99.90
8338;DHT22;4206;48.634;9.516;2023-02-01T11:35:28;5.40;99.90
8338;DHT22;4206;48.634;9.516;2023-02-01T11:37:56;5.50;99.90
8338;DHT22;4206;48.634;9.516;2023-02-01T11:40:34;5.50;99.90
8338;DHT22;4206;48.634;9.516;2023-02-01T11:43:37;5.50;99.90
8338;DHT22;4206;48.634;9.516;2023-02-01T11:48:20;5.60;99.90
8338;DHT22;4206;48.634;9.516;2023-02-01T11:51:11;5.70;99.90
8338;DHT22;4206;48.634;9.516;2023-02-01T11:56:36;5.70;99.90
8338;DHT22;4206;48.634;9.516;2023-02-01T12:26:50;5.90;99.90
8338;DHT22;4206;48.634;9.516;2023-02-01T12:29:23;5.90;99.90
8338;DHT22;4206;48.634;9.516;2023-02-01T12:32:11;5.80;99.90
8338;DHT22;4206;48.634;9.516;2023-02-01T12:37:58;5.70;99.90
8338;DHT22;4206;48.634;9.516;2023-02-01T12:40:43;5.80;99.90
8338;DHT22;4206;48.634;9.516;2023-02-01T12:45:46;5.70;99.90
8338;DHT22;4206;48.634;9.516;2023-02-01T12:48:33;5.70;99.90
8338;DHT22;4206;48.634;9.516;2023-02-01T12:51:04;5.70;99.90
8338;DHT22;4206;48.634;9.516;2023-02-01T12:56:14;5.60;99.90
8338;DHT22;4206;48.634;9.516;2023-02-01T12:58:48;5.60;99.90
8338;DHT22;4206;48.634;9.516;2023-02-01T13:01:22;5.50;99.90
8338;DHT22;4206;48.634;9.516;2023-02-01T13:09:51;5.60;99.90
8338;DHT22;4206;48.634;9.516;2023-02-01T13:12:24;5.50;99.90
8338;DHT22;4206;48.634;9.516;2023-02-01T13:14:56;5.50;99.90
8338;DHT22;4206;48.634;9.516;2023-02-01T13:17:27;5.50;99.90
8338;DHT22;4206;48.634;9.516;2023-02-01T13:20:02;5.50;99.90
8338;DHT22;4206;48.634;9.516;2023-02-01T13:22:37;5.40;99.90
8338;DHT22;4206;48.634;9.516;2023-02-01T13:25:13;5.50;99.90
8338;DHT22;4206;48.634;9.516;2023-02-01T13:27:40;5.40;99.90
8338;DHT22;4206;48.634;9.516;2023-02-01T13:30:23;5.40;99.90
8338;DHT22;4206;48.634;9.516;2023-02-01T13:35:50;5.40;99.90
8338;DHT22;4206;48.634;9.516;2023-02-01T13:38:42;5.50;99.90
8338;DHT22;4206;48.634;9.516;2023-02-01T13:41:26;5.40;99.90
8338;DHT22;4206;48.634;9.516;2023-02-01T13:43:57;5.50;99.90
8338;DHT22;4206;48.634;9.516;2023-02-01T13:46:24;5.50;99.90
8338;DHT22;4206;48.634;9.516;2023-02-01T13:48:55;5.50;99.90
8338;DHT22;4206;48.634;9.516;2023-02-01T13:51:42;5.60;99.90
8338;DHT22;4206;48.634;9.516;2023-02-01T13:56:49;5.50;99.90
8338;DHT22;4206;48.634;9.516;2023-02-01T14:05:11;5.50;99.90
8338;DHT22;4206;48.634;9.516;2023-02-01T14:07:35;5.40;99.90
8338;DHT22;4206;48.634;9.516;2023-02-01T14:13:05;5.40;99.90
8338;DHT22;4206;48.634;9.516;2023-02-01T14:15:37;5.40;99.90
8338;DHT22;4206;48.634;9.516;2023-02-01T14:32:11;5.20;99.90
8338;DHT22;4206;48.634;9.516;2023-02-01T14:42:21;5.20;99.90
8338;DHT22;4206;48.634;9.516;2023-02-01T14:44:47;5.20;99.90
8338;DHT22;4206;48.634;9.516;2023-02-01T14:47:28;5.20;99.90
8338;DHT22;4206;48.634;9.516;2023-02-01T14:49:58;5.20;99.90
8338;DHT22;4206;48.634;9.516;2023-02-01T14:52:42;5.20;99.90
8338;DHT22;4206;48.634;9.516;2023-02-01T14:55:15;5.20;99.90
8338;DHT22;4206;48.634;9.516;2023-02-01T14:57:43;5.20;99.90
8338;DHT22;4206;48.634;9.516;2023-02-01T15:02:46;5.20;99.90
8338;DHT22;4206;48.634;9.516;2023-02-01T15:05:31;5.20;99.90
8338;DHT22;4206;48.634;9.516;2023-02-01T15:08:00;5.20;99.90
8338;DHT22;4206;48.634;9.516;2023-02-01T15:10:31;5.20;99.90
8338;DHT22;4206;48.634;9.516;2023-02-01T15:12:57;5.20;99.90
8338;DHT22;4206;48.634;9.516;2023-02-01T15:15:24;5.20;99.90
8338;DHT22;4206;48.634;9.516;2023-02-01T15:17:51;5.20;99.90
8338;DHT22;4206;48.634;9.516;2023-02-01T15:20:21;5.10;99.90
8338;DHT22;4206;48.634;9.516;2023-02-01T15:22:57;5.10;99.90
8338;DHT22;4206;48.634;9.516;2023-02-01T15:25:28;5.10;99.90
8338;DHT22;4206;48.634;9.516;2023-02-01T15:27:55;5.10;99.90
8338;DHT22;4206;48.634;9.516;2023-02-01T15:30:24;5.10;99.90
8338;DHT22;4206;48.634;9.516;2023-02-01T15:32:51;5.10;99.90
8338;DHT22;4206;48.634;9.516;2023-02-01T15:35:40;5.10;99.90
8338;DHT22;4206;48.634;9.516;2023-02-01T15:43:28;5.20;99.90
8338;DHT22;4206;48.634;9.516;2023-02-01T15:45:58;5.20;99.90
8338;DHT22;4206;48.634;9.516;2023-02-01T15:48:26;5.10;99.90
8338;DHT22;4206;48.634;9.516;2023-02-01T15:50:53;5.00;99.90
8338;DHT22;4206;48.634;9.516;2023-02-01T15:53:23;5.10;99.90
8338;DHT22;4206;48.634;9.516;2023-02-01T15:55:53;5.10;99.90
8338;DHT22;4206;48.634;9.516;2023-02-01T15:58:22;5.10;99.90
8338;DHT22;4206;48.634;9.516;2023-02-01T16:00:51;5.10;99.90
8338;DHT22;4206;48.634;9.516;2023-02-01T16:03:36;5.10;99.90
8338;DHT22;4206;48.634;9.516;2023-02-01T16:06:07;5.10;99.90
8338;DHT22;4206;48.634;9.516;2023-02-01T16:08:33;5.10;99.90
8338;DHT22;4206;48.634;9.516;2023-02-01T16:11:13;5.10;99.90
8338;DHT22;4206;48.634;9.516;2023-02-01T16:13:40;5.10;99.90
8338;DHT22;4206;48.634;9.516;2023-02-01T16:16:08;5.00;99.90
8338;DHT22;4206;48.634;9.516;2023-02-01T16:18:39;4.90;99.90
8338;DHT22;4206;48.634;9.516;2023-02-01T16:21:05;4.90;99.90
8338;DHT22;4206;48.634;9.516;2023-02-01T16:23:33;4.90;99.90
8338;DHT22;4206;48.634;9.516;2023-02-01T16:25:58;4.90;99.90
8338;DHT22;4206;48.634;9.516;2023-02-01T16:28:24;4.90;99.90
8338;DHT22;4206;48.634;9.516;2023-02-01T16:30:50;4.90;99.90
8338;DHT22;4206;48.634;9.516;2023-02-01T16:33:19;4.90;99.90
8338;DHT22;4206;48.634;9.516;2023-02-01T16:35:47;4.90;99.90
8338;DHT22;4206;48.634;9.516;2023-02-01T16:38:15;4.90;99.90
8338;DHT22;4206;48.634;9.516;2023-02-01T16:40:44;4.90;99.90
8338;DHT22;4206;48.634;9.516;2023-02-01T16:43:14;4.90;99.90
8338;DHT22;4206;48.634;9.516;2023-02-01T16:45:41;4.90;99.90
8338;DHT22;4206;48.634;9.516;2023-02-01T16:50:59;4.90;99.90
8338;DHT22;4206;48.634;9.516;2023-02-01T16:53:28;4.90;99.90
8338;DHT22;4206;48.634;9.516;2023-02-01T16:55:55;4.90;99.90
8338;DHT22;4206;48.634;9.516;2023-02-01T16:58:23;4.90;99.90
8338;DHT22;4206;48.634;9.516;2023-02-01T17:00:49;4.90;99.90
8338;DHT22;4206;48.634;9.516;2023-02-01T17:03:16;4.90;99.90
8338;DHT22;4206;48.634;9.516;2023-02-01T17:05:48;4.90;99.90
8338;DHT22;4206;48.634;9.516;2023-02-01T17:08:21;4.90;99.90
8338;DHT22;4206;48.634;9.516;2023-02-01T17:10:47;4.90;99.90
8338;DHT22;4206;48.634;9.516;2023-02-01T17:13:15;4.90;99.90
8338;DHT22;4206;48.634;9.516;2023-02-01T17:15:51;4.90;99.90
8338;DHT22;4206;48.634;9.516;2023-02-01T17:18:18;5.00;99.90
8338;DHT22;4206;48.634;9.516;2023-02-01T17:20:44;5.00;99.90
8338;DHT22;4206;48.634;9.516;2023-02-01T17:23:13;5.00;99.90
8338;DHT22;4206;48.634;9.516;2023-02-01T17:25:39;5.00;99.90
8338;DHT22;4206;48.634;9.516;2023-02-01T17:28:06;5.00;99.90
8338;DHT22;4206;48.634;9.516;2023-02-01T17:30:32;5.10;99.90
8338;DHT22;4206;48.634;9.516;2023-02-01T17:32:58;5.10;99.90
8338;DHT22;4206;48.634;9.516;2023-02-01T17:35:26;5.10;99.90
8338;DHT22;4206;48.634;9.516;2023-02-01T17:37:52;5.10;99.90
8338;DHT22;4206;48.634;9.516;2023-02-01T17:40:18;5.10;99.90
8338;DHT22;4206;48.634;9.516;2023-02-01T17:42:44;5.10;99.90
8338;DHT22;4206;48.634;9.516;2023-02-01T17:47:51;5.00;99.90
8338;DHT22;4206;48.634;9.516;2023-02-01T17:50:17;5.00;99.90
8338;DHT22;4206;48.634;9.516;2023-02-01T17:52:43;5.00;99.90
8338;DHT22;4206;48.634;9.516;2023-02-01T17:55:17;5.00;99.90
8338;DHT22;4206;48.634;9.516;2023-02-01T17:57:43;5.00;99.90
8338;DHT22;4206;48.634;9.516;2023-02-01T18:00:10;5.00;99.90
8338;DHT22;4206;48.634;9.516;2023-02-01T18:02:38;4.90;99.90
8338;DHT22;4206;48.634;9.516;2023-02-01T18:05:17;4.90;99.90
8338;DHT22;4206;48.634;9.516;2023-02-01T18:07:43;5.00;99.90
8338;DHT22;4206;48.634;9.516;2023-02-01T18:10:09;5.00;99.90
8338;DHT22;4206;48.634;9.516;2023-02-01T18:12:35;5.00;99.90
8338;DHT22;4206;48.634;9.516;2023-02-01T18:15:07;5.00;99.90
8338;DHT22;4206;48.634;9.516;2023-02-01T18:17:35;5.00;99.90
8338;DHT22;4206;48.634;9.516;2023-02-01T18:20:01;5.00;99.90
8338;DHT22;4206;48.634;9.516;2023-02-01T18:22:26;5.00;99.90
8338;DHT22;4206;48.634;9.516;2023-02-01T18:24:52;4.90;99.90
8338;DHT22;4206;48.634;9.516;2023-02-01T18:27:18;4.90;99.90
8338;DHT22;4206;48.634;9.516;2023-02-01T18:29:43;4.90;99.90
8338;DHT22;4206;48.634;9.516;2023-02-01T18:32:09;5.00;99.90
8338;DHT22;4206;48.634;9.516;2023-02-01T18:34:36;4.90;99.90
8338;DHT22;4206;48.634;9.516;2023-02-01T18:37:02;4.90;99.90
8338;DHT22;4206;48.634;9.516;2023-02-01T18:39:27;4.90;99.90
8338;DHT22;4206;48.634;9.516;2023-02-01T18:41:53;5.00;99.90
8338;DHT22;4206;48.634;9.516;2023-02-01T18:44:19;5.10;99.90
8338;DHT22;4206;48.634;9.516;2023-02-01T18:46:44;5.00;99.90
8338;DHT22;4206;48.634;9.516;2023-02-01T18:49:10;4.90;99.90
8338;DHT22;4206;48.634;9.516;2023-02-01T18:51:38;5.00;99.90
8338;DHT22;4206;48.634;9.516;2023-02-01T18:54:04;5.10;99.90
8338;DHT22;4206;48.634;9.516;2023-02-01T18:56:30;5.00;99.90
8338;DHT22;4206;48.634;9.516;2023-02-01T18:58:56;5.00;99.90
8338;DHT22;4206;48.634;9.516;2023-02-01T19:01:24;4.90;99.90